createdAt,value
2022-08-30T00:03:46.834Z,19.6
2022-08-30T00:09:24.253Z,19.5
2022-08-30T00:14:59.141Z,19.5
2022-08-30T00:20:34.004Z,19.5
2022-08-30T00:26:09.171Z,19.5
2022-08-30T00:31:45.010Z,19.5
2022-08-30T00:37:19.721Z,19.4
2022-08-30T00:43:16.688Z,19.4
2022-08-30T00:48:52.585Z,19.4
2022-08-30T00:54:27.426Z,19.4
2022-08-30T01:00:11.013Z,19.4
2022-08-30T01:05:45.979Z,19.3
2022-08-30T01:11:20.813Z,19.3
2022-08-30T01:16:56.017Z,19.3
2022-08-30T01:22:31.796Z,19.3
2022-08-30T01:28:09.556Z,19.3
2022-08-30T01:33:45.813Z,19.3
2022-08-30T01:39:20.464Z,19.4
2022-08-30T01:44:55.328Z,19.4
2022-08-30T01:50:30.400Z,19.4
2022-08-30T01:56:05.013Z,19.3
2022-08-30T02:01:39.934Z,19.3
2022-08-30T02:07:17.047Z,19.3
2022-08-30T02:12:52.041Z,19.3
2022-08-30T02:18:47.927Z,19.3
2022-08-30T02:24:22.705Z,19.3
2022-08-30T02:29:58.762Z,19.3
2022-08-30T02:35:33.515Z,19.3
2022-08-30T02:41:08.221Z,19.2
2022-08-30T02:46:43.074Z,19.2
2022-08-30T02:52:17.749Z,19.2
2022-08-30T02:58:02.353Z,19.2
2022-08-30T03:03:37.057Z,19.2
2022-08-30T03:09:12.261Z,19.2
2022-08-30T03:14:47.220Z,19.2
2022-08-30T03:20:22.655Z,19.2
2022-08-30T03:25:57.446Z,19.2
2022-08-30T03:31:32.511Z,19.2
2022-08-30T03:37:28.974Z,19.2
2022-08-30T03:43:03.718Z,19.2
2022-08-30T03:48:41.281Z,19.2
2022-08-30T03:54:16.070Z,19.1
2022-08-30T03:59:53.444Z,19.1
2022-08-30T04:05:28.330Z,19.1
2022-08-30T04:11:06.291Z,19.1
2022-08-30T04:16:44.014Z,19.1
2022-08-30T04:22:54.662Z,19.1
2022-08-30T04:28:29.484Z,19.1
2022-08-30T04:34:04.535Z,19.1
2022-08-30T04:39:39.484Z,19.1
2022-08-30T04:45:14.455Z,19.1
2022-08-30T04:50:49.515Z,19.1
2022-08-30T04:56:24.144Z,19
2022-08-30T05:02:00.547Z,19
2022-08-30T05:07:36.377Z,19
2022-08-30T05:13:12.882Z,19
2022-08-30T05:18:48.286Z,19
2022-08-30T05:24:23.111Z,19
2022-08-30T05:29:59.315Z,19
2022-08-30T05:35:34.181Z,19
2022-08-30T05:41:10.856Z,19
2022-08-30T05:46:46.362Z,19
2022-08-30T05:52:21.883Z,19
2022-08-30T05:57:57.283Z,19
2022-08-30T06:03:32.125Z,18.8
2022-08-30T06:09:06.935Z,18.5
2022-08-30T06:14:43.627Z,18.4
2022-08-30T06:20:18.790Z,18.3
2022-08-30T06:25:53.498Z,18.4
2022-08-30T06:31:28.332Z,18.4
2022-08-30T06:37:04.528Z,18.6
2022-08-30T06:42:39.525Z,18.8
2022-08-30T06:48:14.409Z,19
2022-08-30T06:53:49.237Z,19.2
2022-08-30T06:59:24.048Z,19.3
2022-08-30T07:04:58.902Z,19.4
2022-08-30T07:10:34.132Z,19.6
2022-08-30T07:16:09.825Z,19.8
2022-08-30T07:21:45.871Z,20
2022-08-30T07:27:20.672Z,20.2
2022-08-30T07:32:55.963Z,20.4
2022-08-30T07:38:30.893Z,20.5
2022-08-30T07:44:06.198Z,20.8
2022-08-30T07:49:41.046Z,20.9
2022-08-30T07:55:15.865Z,21.1
2022-08-30T08:00:51.480Z,21.2
2022-08-30T08:06:26.589Z,21.5
2022-08-30T08:12:10.080Z,21.7
2022-08-30T08:17:44.677Z,21.8
2022-08-30T08:23:19.705Z,22
2022-08-30T08:28:54.584Z,22.2
2022-08-30T08:34:29.473Z,22.4
2022-08-30T08:40:04.465Z,22.3
2022-08-30T08:45:40.339Z,22.4
2022-08-30T08:51:15.587Z,22.5
2022-08-30T08:56:50.439Z,22.7
2022-08-30T09:02:25.255Z,22.9
2022-08-30T09:08:00.403Z,23
2022-08-30T09:13:35.244Z,23.1
2022-08-30T09:19:11.322Z,23.2
2022-08-30T09:24:46.283Z,23.4
2022-08-30T09:30:21.408Z,23.5
2022-08-30T09:35:56.396Z,23.7
2022-08-30T09:41:33.113Z,23.8
2022-08-30T09:47:09.067Z,23.9
2022-08-30T09:52:44.937Z,24
2022-08-30T09:58:30.498Z,24.2
2022-08-30T10:04:05.548Z,24.3
2022-08-30T10:09:40.474Z,24.3
2022-08-30T10:15:15.435Z,24.5
2022-08-30T10:20:50.785Z,24.7
2022-08-30T10:26:26.132Z,24.8
2022-08-30T10:32:06.655Z,23.9
2022-08-30T10:37:43.123Z,23.6
2022-08-30T10:43:18.641Z,23.5
2022-08-30T10:48:53.881Z,23.5
2022-08-30T10:54:28.731Z,23.5
2022-08-30T11:00:05.994Z,23.5
2022-08-30T11:05:41.956Z,23.5
2022-08-30T11:11:17.394Z,23.6
2022-08-30T11:16:52.774Z,23.7
2022-08-30T11:22:27.623Z,23.8
2022-08-30T11:28:02.490Z,23.8
2022-08-30T11:33:37.509Z,23.9
2022-08-30T11:39:13.045Z,24
2022-08-30T11:44:49.416Z,24
2022-08-30T11:50:24.343Z,24.1
2022-08-30T11:56:02.187Z,24.2
2022-08-30T12:01:50.443Z,24.3
2022-08-30T12:07:35.777Z,24.4
2022-08-30T12:13:16.793Z,24.5
2022-08-30T12:18:55.640Z,24.6
2022-08-30T12:24:31.506Z,24.7
2022-08-30T12:30:12.651Z,24.8
2022-08-30T12:35:52.805Z,24.9
2022-08-30T12:41:29.212Z,25.2
2022-08-30T12:47:05.790Z,25.5
2022-08-30T12:52:41.581Z,25.8
2022-08-30T12:58:20.854Z,25.9
2022-08-30T13:03:57.660Z,26.2
2022-08-30T13:09:37.058Z,26.5
2022-08-30T13:15:12.893Z,26.7
2022-08-30T13:20:47.890Z,27
2022-08-30T13:26:23.276Z,27.2
2022-08-30T13:32:01.465Z,27.5
2022-08-30T13:37:47.502Z,27.8
2022-08-30T13:43:26.982Z,28.1
2022-08-30T13:49:46.655Z,28.3
2022-08-30T13:55:23.519Z,28.6
2022-08-30T14:00:58.435Z,28.8
2022-08-30T14:06:34.913Z,29.1
2022-08-30T14:12:58.977Z,29.3
2022-08-30T14:18:48.936Z,29.5
2022-08-30T14:24:26.640Z,29.7
2022-08-30T14:30:01.595Z,30
2022-08-30T14:35:36.769Z,30.2
2022-08-30T14:41:13.847Z,30.4
2022-08-30T14:46:48.735Z,30.6
2022-08-30T14:52:39.930Z,30.7
2022-08-30T14:58:20.156Z,30.9
2022-08-30T15:03:57.352Z,31.1
2022-08-30T15:09:35.550Z,31.2
2022-08-30T15:15:13.682Z,31.4
2022-08-30T15:20:49.085Z,31.2
2022-08-30T15:26:24.211Z,30.8
2022-08-30T15:31:59.979Z,30.6
2022-08-30T15:37:36.874Z,30.3
2022-08-30T15:43:13.689Z,29.9
2022-08-30T15:49:06.542Z,29.6
2022-08-30T15:54:44.429Z,29.4
2022-08-30T16:00:33.340Z,29.2
2022-08-30T16:06:29.982Z,29.1
2022-08-30T16:12:23.507Z,29
2022-08-30T16:18:11.030Z,29
2022-08-30T16:24:02.468Z,28.9
2022-08-30T16:29:53.603Z,28.8
2022-08-30T16:35:38.199Z,28.7
2022-08-30T16:41:26.351Z,28.6
2022-08-30T16:47:13.522Z,28.4
2022-08-30T16:52:50.894Z,28.2
2022-08-30T16:58:27.955Z,28.1
2022-08-30T17:04:04.767Z,27.9
2022-08-30T17:09:40.119Z,27.8
2022-08-30T17:15:15.641Z,27.7
2022-08-30T17:20:50.775Z,27.6
2022-08-30T17:26:27.440Z,27.5
2022-08-30T17:32:02.726Z,27.4
2022-08-30T17:37:41.093Z,27.3
2022-08-30T17:43:16.861Z,27.2
2022-08-30T17:48:56.649Z,27.1
2022-08-30T17:54:36.296Z,27
2022-08-30T18:00:11.299Z,26.9
2022-08-30T18:05:55.482Z,26.8
2022-08-30T18:11:32.376Z,26.7
2022-08-30T18:17:07.232Z,26.6
2022-08-30T18:22:43.636Z,26.5
2022-08-30T18:28:18.698Z,26.4
2022-08-30T18:33:57.079Z,26.3
2022-08-30T18:39:35.000Z,26.2
2022-08-30T18:45:14.727Z,26.1
2022-08-30T18:50:52.937Z,26
2022-08-30T18:56:28.679Z,25.9
2022-08-30T19:02:09.375Z,25.8
2022-08-30T19:07:47.805Z,25.7
2022-08-30T19:13:22.796Z,25.6
2022-08-30T19:19:00.240Z,25.6
2022-08-30T19:24:35.268Z,25.5
2022-08-30T19:30:12.062Z,25.4
2022-08-30T19:36:04.947Z,25.3
2022-08-30T19:41:40.784Z,25.2
2022-08-30T19:47:15.851Z,25.1
2022-08-30T19:52:54.010Z,25
2022-08-30T19:58:29.847Z,24.9
2022-08-30T20:04:04.966Z,24.8
2022-08-30T20:09:40.774Z,24.8
2022-08-30T20:15:15.628Z,24.7
2022-08-30T20:20:51.663Z,24.6
2022-08-30T20:26:33.734Z,24.6
2022-08-30T20:32:10.486Z,24.5
2022-08-30T20:37:45.545Z,24.4
2022-08-30T20:43:21.285Z,24.4
2022-08-30T20:48:56.165Z,24.3
2022-08-30T20:54:31.068Z,24.2
2022-08-30T21:00:05.855Z,24.1
2022-08-30T21:05:44.211Z,24.1
2022-08-30T21:11:19.536Z,24
2022-08-30T21:16:55.272Z,24
2022-08-30T21:22:31.085Z,24
2022-08-30T21:28:05.877Z,23.9
2022-08-30T21:33:40.613Z,23.9
2022-08-30T21:39:15.687Z,23.9
2022-08-30T21:44:50.469Z,23.9
2022-08-30T21:50:25.405Z,23.9
2022-08-30T21:56:00.236Z,23.8
2022-08-30T22:01:37.818Z,23.8
2022-08-30T22:07:13.952Z,23.8
2022-08-30T22:12:49.982Z,23.7
2022-08-30T22:18:25.121Z,23.7
2022-08-30T22:24:01.904Z,23.7
2022-08-30T22:29:41.039Z,23.6
2022-08-30T22:35:15.913Z,23.6
2022-08-30T22:40:51.600Z,23.6
2022-08-30T22:46:33.669Z,23.5
2022-08-30T22:52:09.872Z,23.4
2022-08-30T22:57:45.135Z,23.4
2022-08-30T23:03:20.056Z,23.3
2022-08-30T23:08:54.894Z,23.3
2022-08-30T23:14:30.722Z,23.2
2022-08-30T23:20:05.470Z,23.2
2022-08-30T23:25:41.604Z,23.1
2022-08-30T23:31:26.327Z,23.1
2022-08-30T23:37:03.168Z,23.1
2022-08-30T23:42:38.113Z,23.1
2022-08-30T23:48:12.967Z,23
2022-08-30T23:53:49.037Z,23
2022-08-30T23:59:23.854Z,23
